sensor_id;sensor_type;location;lat;lon;timestamp;P1;durP1;ratioP1;P2;durP2;ratioP2
19810;SDS011;10065;49.632;8.346;2022-09-25T00:00:46;10.17;;;7.90;;
19810;SDS011;10065;49.632;8.346;2022-09-25T00:03:16;12.50;;;8.00;;
19810;SDS011;10065;49.632;8.346;2022-09-25T00:05:45;12.33;;;7.90;;
19810;SDS011;10065;49.632;8.346;2022-09-25T00:08:13;9.83;;;7.63;;
19810;SDS011;10065;49.632;8.346;2022-09-25T00:10:43;13.97;;;8.90;;
19810;SDS011;10065;49.632;8.346;2022-09-25T00:13:12;11.40;;;7.93;;
19810;SDS011;10065;49.632;8.346;2022-09-25T00:15:44;11.93;;;7.37;;
19810;SDS011;10065;49.632;8.346;2022-09-25T00:18:13;13.07;;;8.70;;
19810;SDS011;10065;49.632;8.346;2022-09-25T00:20:42;12.03;;;8.87;;
19810;SDS011;10065;49.632;8.346;2022-09-25T00:23:09;10.90;;;8.23;;
19810;SDS011;10065;49.632;8.346;2022-09-25T00:25:36;12.20;;;8.07;;
19810;SDS011;10065;49.632;8.346;2022-09-25T00:28:04;11.80;;;8.13;;
19810;SDS011;10065;49.632;8.346;2022-09-25T00:30:32;9.83;;;7.53;;
19810;SDS011;10065;49.632;8.346;2022-09-25T00:33:00;10.00;;;7.13;;
19810;SDS011;10065;49.632;8.346;2022-09-25T00:35:27;10.63;;;7.00;;
19810;SDS011;10065;49.632;8.346;2022-09-25T00:37:56;11.63;;;7.27;;
19810;SDS011;10065;49.632;8.346;2022-09-25T00:40:24;8.30;;;6.03;;
19810;SDS011;10065;49.632;8.346;2022-09-25T00:42:51;8.60;;;5.93;;
19810;SDS011;10065;49.632;8.346;2022-09-25T00:45:19;8.53;;;5.80;;
19810;SDS011;10065;49.632;8.346;2022-09-25T00:47:53;10.10;;;5.97;;
19810;SDS011;10065;49.632;8.346;2022-09-25T00:50:28;9.27;;;6.20;;
19810;SDS011;10065;49.632;8.346;2022-09-25T00:53:03;10.23;;;6.50;;
19810;SDS011;10065;49.632;8.346;2022-09-25T00:55:34;11.20;;;5.57;;
19810;SDS011;10065;49.632;8.346;2022-09-25T00:58:05;8.53;;;5.63;;
19810;SDS011;10065;49.632;8.346;2022-09-25T01:00:34;8.33;;;5.77;;
19810;SDS011;10065;49.632;8.346;2022-09-25T01:03:02;8.63;;;5.40;;
19810;SDS011;10065;49.632;8.346;2022-09-25T01:05:32;8.73;;;5.30;;
19810;SDS011;10065;49.632;8.346;2022-09-25T01:08:04;7.30;;;5.27;;
19810;SDS011;10065;49.632;8.346;2022-09-25T01:10:35;7.17;;;5.10;;
19810;SDS011;10065;49.632;8.346;2022-09-25T01:13:03;8.23;;;5.67;;
19810;SDS011;10065;49.632;8.346;2022-09-25T01:15:33;7.37;;;5.80;;
19810;SDS011;10065;49.632;8.346;2022-09-25T01:18:09;9.27;;;5.73;;
19810;SDS011;10065;49.632;8.346;2022-09-25T01:20:57;7.33;;;5.20;;
19810;SDS011;10065;49.632;8.346;2022-09-25T01:23:40;7.17;;;5.23;;
19810;SDS011;10065;49.632;8.346;2022-09-25T01:26:30;8.20;;;5.60;;
19810;SDS011;10065;49.632;8.346;2022-09-25T01:29:16;9.23;;;5.73;;
19810;SDS011;10065;49.632;8.346;2022-09-25T01:31:50;9.47;;;5.63;;
19810;SDS011;10065;49.632;8.346;2022-09-25T01:34:28;7.30;;;5.33;;
19810;SDS011;10065;49.632;8.346;2022-09-25T01:37:07;11.03;;;5.90;;
19810;SDS011;10065;49.632;8.346;2022-09-25T01:39:50;7.70;;;5.70;;
19810;SDS011;10065;49.632;8.346;2022-09-25T01:42:24;9.40;;;5.70;;
19810;SDS011;10065;49.632;8.346;2022-09-25T01:44:58;6.60;;;5.33;;
19810;SDS011;10065;49.632;8.346;2022-09-25T01:47:32;10.33;;;5.60;;
19810;SDS011;10065;49.632;8.346;2022-09-25T01:50:04;7.97;;;5.90;;
19810;SDS011;10065;49.632;8.346;2022-09-25T01:52:37;8.23;;;5.20;;
19810;SDS011;10065;49.632;8.346;2022-09-25T01:55:08;6.90;;;4.53;;
19810;SDS011;10065;49.632;8.346;2022-09-25T01:57:51;6.97;;;5.00;;
19810;SDS011;10065;49.632;8.346;2022-09-25T02:00:24;5.83;;;4.40;;
19810;SDS011;10065;49.632;8.346;2022-09-25T02:02:54;8.03;;;4.80;;
19810;SDS011;10065;49.632;8.346;2022-09-25T02:05:24;7.10;;;5.17;;
19810;SDS011;10065;49.632;8.346;2022-09-25T02:07:57;7.77;;;5.27;;
19810;SDS011;10065;49.632;8.346;2022-09-25T02:10:29;6.90;;;4.97;;
19810;SDS011;10065;49.632;8.346;2022-09-25T02:13:02;6.87;;;5.67;;
19810;SDS011;10065;49.632;8.346;2022-09-25T02:15:35;7.80;;;5.70;;
19810;SDS011;10065;49.632;8.346;2022-09-25T02:18:07;10.30;;;5.57;;
19810;SDS011;10065;49.632;8.346;2022-09-25T02:20:56;7.77;;;5.23;;
19810;SDS011;10065;49.632;8.346;2022-09-25T02:23:33;7.40;;;5.63;;
19810;SDS011;10065;49.632;8.346;2022-09-25T02:26:13;8.10;;;5.53;;
19810;SDS011;10065;49.632;8.346;2022-09-25T02:28:47;8.47;;;5.67;;
19810;SDS011;10065;49.632;8.346;2022-09-25T02:31:20;7.53;;;5.83;;
19810;SDS011;10065;49.632;8.346;2022-09-25T02:33:49;8.40;;;5.77;;
19810;SDS011;10065;49.632;8.346;2022-09-25T02:36:17;9.10;;;6.00;;
19810;SDS011;10065;49.632;8.346;2022-09-25T02:38:47;7.77;;;5.40;;
19810;SDS011;10065;49.632;8.346;2022-09-25T02:41:18;7.50;;;5.67;;
19810;SDS011;10065;49.632;8.346;2022-09-25T02:44:01;7.30;;;5.17;;
19810;SDS011;10065;49.632;8.346;2022-09-25T02:46:41;5.93;;;4.93;;
19810;SDS011;10065;49.632;8.346;2022-09-25T02:49:19;7.37;;;4.80;;
19810;SDS011;10065;49.632;8.346;2022-09-25T02:51:54;6.53;;;4.77;;
19810;SDS011;10065;49.632;8.346;2022-09-25T02:54:31;7.33;;;4.50;;
19810;SDS011;10065;49.632;8.346;2022-09-25T02:57:05;6.37;;;4.50;;
19810;SDS011;10065;49.632;8.346;2022-09-25T02:59:40;6.87;;;4.27;;
19810;SDS011;10065;49.632;8.346;2022-09-25T03:02:13;6.73;;;4.33;;
19810;SDS011;10065;49.632;8.346;2022-09-25T03:04:42;6.83;;;4.47;;
19810;SDS011;10065;49.632;8.346;2022-09-25T03:07:13;5.83;;;4.03;;
19810;SDS011;10065;49.632;8.346;2022-09-25T03:09:43;5.40;;;4.00;;
19810;SDS011;10065;49.632;8.346;2022-09-25T03:12:12;6.77;;;3.93;;
19810;SDS011;10065;49.632;8.346;2022-09-25T03:14:40;5.90;;;3.77;;
19810;SDS011;10065;49.632;8.346;2022-09-25T03:17:08;5.80;;;3.80;;
19810;SDS011;10065;49.632;8.346;2022-09-25T03:19:39;6.37;;;3.37;;
19810;SDS011;10065;49.632;8.346;2022-09-25T03:22:06;5.53;;;3.50;;
19810;SDS011;10065;49.632;8.346;2022-09-25T03:24:34;7.33;;;3.90;;
19810;SDS011;10065;49.632;8.346;2022-09-25T03:27:02;6.40;;;3.30;;
19810;SDS011;10065;49.632;8.346;2022-09-25T03:29:30;6.77;;;3.10;;
19810;SDS011;10065;49.632;8.346;2022-09-25T03:31:59;5.83;;;2.90;;
19810;SDS011;10065;49.632;8.346;2022-09-25T03:34:26;4.23;;;2.20;;
19810;SDS011;10065;49.632;8.346;2022-09-25T03:36:55;3.90;;;2.57;;
19810;SDS011;10065;49.632;8.346;2022-09-25T03:39:23;5.77;;;2.50;;
19810;SDS011;10065;49.632;8.346;2022-09-25T03:41:51;5.10;;;2.03;;
19810;SDS011;10065;49.632;8.346;2022-09-25T03:44:18;4.50;;;2.23;;
19810;SDS011;10065;49.632;8.346;2022-09-25T03:46:46;2.87;;;2.00;;
19810;SDS011;10065;49.632;8.346;2022-09-25T03:49:13;4.30;;;2.23;;
19810;SDS011;10065;49.632;8.346;2022-09-25T03:51:41;3.57;;;2.07;;
19810;SDS011;10065;49.632;8.346;2022-09-25T03:54:10;3.37;;;2.13;;
19810;SDS011;10065;49.632;8.346;2022-09-25T03:56:38;3.93;;;1.90;;
19810;SDS011;10065;49.632;8.346;2022-09-25T03:59:05;3.47;;;2.13;;
19810;SDS011;10065;49.632;8.346;2022-09-25T04:01:33;5.10;;;2.37;;
19810;SDS011;10065;49.632;8.346;2022-09-25T04:04:02;3.27;;;1.93;;
19810;SDS011;10065;49.632;8.346;2022-09-25T04:06:29;4.20;;;2.87;;
19810;SDS011;10065;49.632;8.346;2022-09-25T04:08:57;4.67;;;2.33;;
19810;SDS011;10065;49.632;8.346;2022-09-25T04:11:26;3.77;;;2.10;;
19810;SDS011;10065;49.632;8.346;2022-09-25T04:13:54;3.27;;;2.20;;
19810;SDS011;10065;49.632;8.346;2022-09-25T04:16:22;3.80;;;2.50;;
19810;SDS011;10065;49.632;8.346;2022-09-25T04:18:49;4.90;;;2.20;;
19810;SDS011;10065;49.632;8.346;2022-09-25T04:21:17;5.80;;;2.33;;
19810;SDS011;10065;49.632;8.346;2022-09-25T04:23:45;3.40;;;2.10;;
19810;SDS011;10065;49.632;8.346;2022-09-25T04:26:34;3.80;;;2.37;;
19810;SDS011;10065;49.632;8.346;2022-09-25T04:29:02;3.40;;;2.00;;
19810;SDS011;10065;49.632;8.346;2022-09-25T04:31:30;4.27;;;2.40;;
19810;SDS011;10065;49.632;8.346;2022-09-25T04:33:58;3.43;;;2.43;;
19810;SDS011;10065;49.632;8.346;2022-09-25T04:36:28;3.80;;;2.20;;
19810;SDS011;10065;49.632;8.346;2022-09-25T04:38:55;5.20;;;2.43;;
19810;SDS011;10065;49.632;8.346;2022-09-25T04:41:23;4.43;;;2.40;;
19810;SDS011;10065;49.632;8.346;2022-09-25T04:43:52;3.47;;;2.60;;
19810;SDS011;10065;49.632;8.346;2022-09-25T04:46:20;3.90;;;2.27;;
19810;SDS011;10065;49.632;8.346;2022-09-25T04:48:48;3.10;;;2.33;;
19810;SDS011;10065;49.632;8.346;2022-09-25T04:51:16;3.77;;;2.60;;
19810;SDS011;10065;49.632;8.346;2022-09-25T04:53:44;5.00;;;2.90;;
19810;SDS011;10065;49.632;8.346;2022-09-25T04:56:12;4.20;;;2.60;;
19810;SDS011;10065;49.632;8.346;2022-09-25T04:58:42;4.73;;;2.70;;
19810;SDS011;10065;49.632;8.346;2022-09-25T05:01:12;4.87;;;3.07;;
19810;SDS011;10065;49.632;8.346;2022-09-25T05:03:40;4.10;;;2.83;;
19810;SDS011;10065;49.632;8.346;2022-09-25T05:06:08;5.40;;;3.40;;
19810;SDS011;10065;49.632;8.346;2022-09-25T05:08:36;3.37;;;2.47;;
19810;SDS011;10065;49.632;8.346;2022-09-25T05:11:03;5.77;;;2.60;;
19810;SDS011;10065;49.632;8.346;2022-09-25T05:13:33;4.43;;;2.60;;
19810;SDS011;10065;49.632;8.346;2022-09-25T05:16:00;5.07;;;3.03;;
19810;SDS011;10065;49.632;8.346;2022-09-25T05:18:30;4.70;;;2.83;;
19810;SDS011;10065;49.632;8.346;2022-09-25T05:21:01;4.33;;;3.00;;
19810;SDS011;10065;49.632;8.346;2022-09-25T05:23:29;4.40;;;3.30;;
19810;SDS011;10065;49.632;8.346;2022-09-25T05:25:57;5.67;;;3.17;;
19810;SDS011;10065;49.632;8.346;2022-09-25T05:28:27;4.70;;;3.27;;
19810;SDS011;10065;49.632;8.346;2022-09-25T05:30:57;5.83;;;3.57;;
19810;SDS011;10065;49.632;8.346;2022-09-25T05:33:25;6.20;;;3.80;;
19810;SDS011;10065;49.632;8.346;2022-09-25T05:35:54;7.83;;;4.20;;
19810;SDS011;10065;49.632;8.346;2022-09-25T05:38:21;5.77;;;3.87;;
19810;SDS011;10065;49.632;8.346;2022-09-25T05:40:49;6.37;;;4.17;;
19810;SDS011;10065;49.632;8.346;2022-09-25T05:43:17;6.67;;;3.90;;
19810;SDS011;10065;49.632;8.346;2022-09-25T05:45:51;7.13;;;3.90;;
19810;SDS011;10065;49.632;8.346;2022-09-25T05:48:19;6.03;;;3.77;;
19810;SDS011;10065;49.632;8.346;2022-09-25T05:50:49;7.27;;;4.43;;
19810;SDS011;10065;49.632;8.346;2022-09-25T05:53:19;4.93;;;3.87;;
19810;SDS011;10065;49.632;8.346;2022-09-25T05:55:49;5.70;;;3.97;;
19810;SDS011;10065;49.632;8.346;2022-09-25T05:58:17;6.30;;;4.20;;
19810;SDS011;10065;49.632;8.346;2022-09-25T06:00:45;5.97;;;4.03;;
19810;SDS011;10065;49.632;8.346;2022-09-25T06:03:13;6.87;;;4.83;;
19810;SDS011;10065;49.632;8.346;2022-09-25T06:05:41;6.13;;;4.13;;
19810;SDS011;10065;49.632;8.346;2022-09-25T06:08:10;7.20;;;4.43;;
19810;SDS011;10065;49.632;8.346;2022-09-25T06:10:40;5.60;;;4.30;;
19810;SDS011;10065;49.632;8.346;2022-09-25T06:13:08;7.10;;;4.20;;
19810;SDS011;10065;49.632;8.346;2022-09-25T06:15:36;6.60;;;4.23;;
19810;SDS011;10065;49.632;8.346;2022-09-25T06:18:07;5.97;;;3.70;;
19810;SDS011;10065;49.632;8.346;2022-09-25T06:20:35;5.43;;;4.17;;
19810;SDS011;10065;49.632;8.346;2022-09-25T06:23:03;8.87;;;4.93;;
19810;SDS011;10065;49.632;8.346;2022-09-25T06:25:30;6.87;;;4.50;;
19810;SDS011;10065;49.632;8.346;2022-09-25T06:28:00;9.30;;;4.70;;
19810;SDS011;10065;49.632;8.346;2022-09-25T06:30:29;6.40;;;4.60;;
19810;SDS011;10065;49.632;8.346;2022-09-25T06:32:59;6.60;;;4.57;;
19810;SDS011;10065;49.632;8.346;2022-09-25T06:35:28;6.27;;;4.90;;
19810;SDS011;10065;49.632;8.346;2022-09-25T06:37:56;6.53;;;4.63;;
19810;SDS011;10065;49.632;8.346;2022-09-25T06:40:24;5.73;;;4.17;;
19810;SDS011;10065;49.632;8.346;2022-09-25T06:42:56;6.40;;;4.57;;
19810;SDS011;10065;49.632;8.346;2022-09-25T06:45:26;7.20;;;4.47;;
19810;SDS011;10065;49.632;8.346;2022-09-25T06:47:58;7.90;;;5.40;;
19810;SDS011;10065;49.632;8.346;2022-09-25T06:50:27;7.70;;;4.50;;
19810;SDS011;10065;49.632;8.346;2022-09-25T06:52:58;7.43;;;5.30;;
19810;SDS011;10065;49.632;8.346;2022-09-25T06:55:26;6.97;;;4.83;;
19810;SDS011;10065;49.632;8.346;2022-09-25T06:57:54;9.13;;;5.80;;
19810;SDS011;10065;49.632;8.346;2022-09-25T07:00:21;7.90;;;4.80;;
19810;SDS011;10065;49.632;8.346;2022-09-25T07:02:50;7.23;;;4.63;;
19810;SDS011;10065;49.632;8.346;2022-09-25T07:05:35;7.63;;;5.80;;
19810;SDS011;10065;49.632;8.346;2022-09-25T07:08:03;7.67;;;5.33;;
19810;SDS011;10065;49.632;8.346;2022-09-25T07:10:31;7.07;;;5.20;;
19810;SDS011;10065;49.632;8.346;2022-09-25T07:12:58;7.43;;;5.03;;
19810;SDS011;10065;49.632;8.346;2022-09-25T07:15:26;7.77;;;5.40;;
19810;SDS011;10065;49.632;8.346;2022-09-25T07:17:55;8.97;;;5.67;;
19810;SDS011;10065;49.632;8.346;2022-09-25T07:20:24;8.17;;;6.20;;
19810;SDS011;10065;49.632;8.346;2022-09-25T07:22:51;8.77;;;6.20;;
19810;SDS011;10065;49.632;8.346;2022-09-25T07:25:20;8.50;;;6.43;;
19810;SDS011;10065;49.632;8.346;2022-09-25T07:27:47;8.27;;;5.70;;
19810;SDS011;10065;49.632;8.346;2022-09-25T07:30:15;9.60;;;6.43;;
19810;SDS011;10065;49.632;8.346;2022-09-25T07:32:43;8.53;;;6.07;;
19810;SDS011;10065;49.632;8.346;2022-09-25T07:35:12;9.57;;;6.57;;
19810;SDS011;10065;49.632;8.346;2022-09-25T07:37:39;10.53;;;6.17;;
19810;SDS011;10065;49.632;8.346;2022-09-25T07:40:07;10.47;;;6.50;;
19810;SDS011;10065;49.632;8.346;2022-09-25T07:42:39;6.87;;;5.57;;
19810;SDS011;10065;49.632;8.346;2022-09-25T07:45:08;9.33;;;6.07;;
19810;SDS011;10065;49.632;8.346;2022-09-25T07:47:36;9.27;;;6.47;;
19810;SDS011;10065;49.632;8.346;2022-09-25T07:50:04;10.67;;;7.23;;
19810;SDS011;10065;49.632;8.346;2022-09-25T07:52:39;9.03;;;7.00;;
19810;SDS011;10065;49.632;8.346;2022-09-25T07:55:07;10.53;;;6.23;;
19810;SDS011;10065;49.632;8.346;2022-09-25T07:57:35;9.03;;;6.27;;
19810;SDS011;10065;49.632;8.346;2022-09-25T08:00:03;8.47;;;6.57;;
19810;SDS011;10065;49.632;8.346;2022-09-25T08:02:32;8.77;;;6.50;;
19810;SDS011;10065;49.632;8.346;2022-09-25T08:05:00;8.93;;;6.20;;
19810;SDS011;10065;49.632;8.346;2022-09-25T08:07:28;8.83;;;6.13;;
19810;SDS011;10065;49.632;8.346;2022-09-25T08:09:57;9.17;;;6.40;;
19810;SDS011;10065;49.632;8.346;2022-09-25T08:12:25;9.70;;;6.47;;
19810;SDS011;10065;49.632;8.346;2022-09-25T08:14:52;8.27;;;6.40;;
19810;SDS011;10065;49.632;8.346;2022-09-25T08:17:20;9.00;;;6.27;;
19810;SDS011;10065;49.632;8.346;2022-09-25T08:19:48;10.90;;;7.13;;
19810;SDS011;10065;49.632;8.346;2022-09-25T08:22:16;10.97;;;7.40;;
19810;SDS011;10065;49.632;8.346;2022-09-25T08:24:43;8.87;;;6.90;;
19810;SDS011;10065;49.632;8.346;2022-09-25T08:27:12;10.63;;;6.60;;
19810;SDS011;10065;49.632;8.346;2022-09-25T08:29:40;11.97;;;8.30;;
19810;SDS011;10065;49.632;8.346;2022-09-25T08:32:07;13.17;;;8.77;;
19810;SDS011;10065;49.632;8.346;2022-09-25T08:34:35;12.17;;;9.57;;
19810;SDS011;10065;49.632;8.346;2022-09-25T08:37:07;11.77;;;8.40;;
19810;SDS011;10065;49.632;8.346;2022-09-25T08:39:35;13.60;;;9.63;;
19810;SDS011;10065;49.632;8.346;2022-09-25T08:42:03;15.07;;;11.07;;
19810;SDS011;10065;49.632;8.346;2022-09-25T08:44:34;14.47;;;10.80;;
19810;SDS011;10065;49.632;8.346;2022-09-25T08:47:04;16.80;;;12.80;;
19810;SDS011;10065;49.632;8.346;2022-09-25T08:49:59;15.57;;;11.37;;
19810;SDS011;10065;49.632;8.346;2022-09-25T08:52:29;17.53;;;12.50;;
19810;SDS011;10065;49.632;8.346;2022-09-25T08:54:57;16.87;;;13.00;;
19810;SDS011;10065;49.632;8.346;2022-09-25T08:57:28;17.27;;;13.47;;
19810;SDS011;10065;49.632;8.346;2022-09-25T09:00:04;18.95;;;15.60;;
19810;SDS011;10065;49.632;8.346;2022-09-25T09:02:39;19.20;;;14.13;;
19810;SDS011;10065;49.632;8.346;2022-09-25T09:05:13;18.67;;;13.20;;
19810;SDS011;10065;49.632;8.346;2022-09-25T09:07:45;22.73;;;13.63;;
19810;SDS011;10065;49.632;8.346;2022-09-25T09:10:21;18.47;;;13.63;;
19810;SDS011;10065;49.632;8.346;2022-09-25T09:12:58;18.97;;;14.07;;
19810;SDS011;10065;49.632;8.346;2022-09-25T09:15:36;16.20;;;12.53;;
19810;SDS011;10065;49.632;8.346;2022-09-25T09:18:15;17.53;;;13.63;;
19810;SDS011;10065;49.632;8.346;2022-09-25T09:20:49;19.10;;;14.27;;
19810;SDS011;10065;49.632;8.346;2022-09-25T09:23:19;21.23;;;14.60;;
19810;SDS011;10065;49.632;8.346;2022-09-25T09:25:52;18.47;;;14.57;;
19810;SDS011;10065;49.632;8.346;2022-09-25T09:31:23;19.37;;;13.53;;
19810;SDS011;10065;49.632;8.346;2022-09-25T09:33:58;21.40;;;14.13;;
19810;SDS011;10065;49.632;8.346;2022-09-25T09:36:37;20.57;;;15.40;;
19810;SDS011;10065;49.632;8.346;2022-09-25T09:39:15;22.67;;;15.90;;
19810;SDS011;10065;49.632;8.346;2022-09-25T09:41:53;22.67;;;16.20;;
19810;SDS011;10065;49.632;8.346;2022-09-25T09:44:32;24.73;;;17.10;;
19810;SDS011;10065;49.632;8.346;2022-09-25T09:47:15;21.23;;;16.43;;
19810;SDS011;10065;49.632;8.346;2022-09-25T09:49:56;22.87;;;16.30;;
19810;SDS011;10065;49.632;8.346;2022-09-25T09:52:34;25.23;;;18.63;;
19810;SDS011;10065;49.632;8.346;2022-09-25T09:55:08;25.50;;;18.57;;
19810;SDS011;10065;49.632;8.346;2022-09-25T09:57:46;23.63;;;17.60;;
19810;SDS011;10065;49.632;8.346;2022-09-25T10:00:18;28.00;;;18.67;;
19810;SDS011;10065;49.632;8.346;2022-09-25T10:02:50;27.87;;;18.57;;
19810;SDS011;10065;49.632;8.346;2022-09-25T10:05:22;28.83;;;19.90;;
19810;SDS011;10065;49.632;8.346;2022-09-25T10:07:52;24.47;;;17.60;;
19810;SDS011;10065;49.632;8.346;2022-09-25T10:10:21;26.27;;;17.70;;
19810;SDS011;10065;49.632;8.346;2022-09-25T10:12:55;28.20;;;18.17;;
19810;SDS011;10065;49.632;8.346;2022-09-25T10:15:32;25.47;;;18.23;;
19810;SDS011;10065;49.632;8.346;2022-09-25T10:18:05;27.97;;;19.73;;
19810;SDS011;10065;49.632;8.346;2022-09-25T10:20:35;26.20;;;18.83;;
19810;SDS011;10065;49.632;8.346;2022-09-25T10:23:12;29.37;;;20.77;;
19810;SDS011;10065;49.632;8.346;2022-09-25T10:25:48;22.97;;;17.87;;
19810;SDS011;10065;49.632;8.346;2022-09-25T10:28:24;28.00;;;19.70;;
19810;SDS011;10065;49.632;8.346;2022-09-25T10:30:53;26.70;;;18.50;;
19810;SDS011;10065;49.632;8.346;2022-09-25T10:33:24;23.27;;;17.30;;
19810;SDS011;10065;49.632;8.346;2022-09-25T10:35:53;24.03;;;18.20;;
19810;SDS011;10065;49.632;8.346;2022-09-25T10:38:29;27.43;;;19.93;;
19810;SDS011;10065;49.632;8.346;2022-09-25T10:41:01;26.27;;;17.60;;
19810;SDS011;10065;49.632;8.346;2022-09-25T10:43:32;23.83;;;18.37;;
19810;SDS011;10065;49.632;8.346;2022-09-25T10:46:04;26.83;;;18.33;;
19810;SDS011;10065;49.632;8.346;2022-09-25T10:48:35;24.10;;;17.27;;
19810;SDS011;10065;49.632;8.346;2022-09-25T10:51:22;24.33;;;17.80;;
19810;SDS011;10065;49.632;8.346;2022-09-25T10:53:51;22.17;;;16.30;;
19810;SDS011;10065;49.632;8.346;2022-09-25T10:56:23;27.97;;;16.83;;
19810;SDS011;10065;49.632;8.346;2022-09-25T10:59:01;20.83;;;15.90;;
19810;SDS011;10065;49.632;8.346;2022-09-25T11:01:29;21.00;;;16.43;;
19810;SDS011;10065;49.632;8.346;2022-09-25T11:04:03;20.73;;;16.40;;
19810;SDS011;10065;49.632;8.346;2022-09-25T11:06:41;22.93;;;15.97;;
19810;SDS011;10065;49.632;8.346;2022-09-25T11:09:12;19.50;;;14.77;;
19810;SDS011;10065;49.632;8.346;2022-09-25T11:11:42;24.10;;;17.53;;
19810;SDS011;10065;49.632;8.346;2022-09-25T11:14:19;23.30;;;16.40;;
19810;SDS011;10065;49.632;8.346;2022-09-25T11:16:51;21.33;;;16.57;;
19810;SDS011;10065;49.632;8.346;2022-09-25T11:19:27;21.17;;;15.57;;
19810;SDS011;10065;49.632;8.346;2022-09-25T11:21:58;20.57;;;14.57;;
19810;SDS011;10065;49.632;8.346;2022-09-25T11:27:31;20.97;;;16.00;;
19810;SDS011;10065;49.632;8.346;2022-09-25T11:30:03;19.17;;;14.77;;
19810;SDS011;10065;49.632;8.346;2022-09-25T11:32:37;19.40;;;15.23;;
19810;SDS011;10065;49.632;8.346;2022-09-25T11:35:24;20.03;;;14.03;;
19810;SDS011;10065;49.632;8.346;2022-09-25T11:38:01;19.50;;;14.00;;
19810;SDS011;10065;49.632;8.346;2022-09-25T11:40:39;20.77;;;12.97;;
19810;SDS011;10065;49.632;8.346;2022-09-25T11:43:34;20.23;;;13.07;;
19810;SDS011;10065;49.632;8.346;2022-09-25T11:46:15;19.23;;;13.90;;
19810;SDS011;10065;49.632;8.346;2022-09-25T11:48:51;17.17;;;13.10;;
19810;SDS011;10065;49.632;8.346;2022-09-25T11:51:34;17.07;;;12.93;;
19810;SDS011;10065;49.632;8.346;2022-09-25T11:54:18;21.40;;;14.17;;
19810;SDS011;10065;49.632;8.346;2022-09-25T11:57:02;18.30;;;13.13;;
19810;SDS011;10065;49.632;8.346;2022-09-25T11:59:40;19.73;;;15.40;;
19810;SDS011;10065;49.632;8.346;2022-09-25T12:02:19;21.43;;;14.90;;
19810;SDS011;10065;49.632;8.346;2022-09-25T12:04:59;18.47;;;14.13;;
19810;SDS011;10065;49.632;8.346;2022-09-25T12:07:53;20.27;;;13.83;;
19810;SDS011;10065;49.632;8.346;2022-09-25T12:10:40;17.53;;;12.90;;
19810;SDS011;10065;49.632;8.346;2022-09-25T12:13:19;18.57;;;13.23;;
19810;SDS011;10065;49.632;8.346;2022-09-25T12:15:56;19.30;;;13.10;;
19810;SDS011;10065;49.632;8.346;2022-09-25T12:18:43;18.10;;;13.67;;
19810;SDS011;10065;49.632;8.346;2022-09-25T12:21:36;19.40;;;13.37;;
19810;SDS011;10065;49.632;8.346;2022-09-25T12:24:13;19.07;;;14.23;;
19810;SDS011;10065;49.632;8.346;2022-09-25T12:26:59;18.27;;;13.80;;
19810;SDS011;10065;49.632;8.346;2022-09-25T12:29:39;19.40;;;13.17;;
19810;SDS011;10065;49.632;8.346;2022-09-25T12:32:18;17.77;;;12.77;;
19810;SDS011;10065;49.632;8.346;2022-09-25T12:34:58;18.60;;;14.67;;
19810;SDS011;10065;49.632;8.346;2022-09-25T12:37:40;19.67;;;13.13;;
19810;SDS011;10065;49.632;8.346;2022-09-25T12:40:15;19.43;;;14.10;;
19810;SDS011;10065;49.632;8.346;2022-09-25T12:42:51;20.90;;;13.37;;
19810;SDS011;10065;49.632;8.346;2022-09-25T12:45:24;18.50;;;12.07;;
19810;SDS011;10065;49.632;8.346;2022-09-25T12:48:00;19.33;;;12.10;;
19810;SDS011;10065;49.632;8.346;2022-09-25T12:50:36;18.60;;;10.57;;
19810;SDS011;10065;49.632;8.346;2022-09-25T12:53:15;16.73;;;11.17;;
19810;SDS011;10065;49.632;8.346;2022-09-25T12:55:51;13.90;;;10.50;;
19810;SDS011;10065;49.632;8.346;2022-09-25T12:58:36;15.27;;;11.47;;
19810;SDS011;10065;49.632;8.346;2022-09-25T13:01:13;16.33;;;10.43;;
19810;SDS011;10065;49.632;8.346;2022-09-25T13:03:49;12.50;;;9.27;;
19810;SDS011;10065;49.632;8.346;2022-09-25T13:06:30;15.03;;;10.10;;
19810;SDS011;10065;49.632;8.346;2022-09-25T13:09:06;16.37;;;12.53;;
19810;SDS011;10065;49.632;8.346;2022-09-25T13:11:46;13.87;;;8.67;;
19810;SDS011;10065;49.632;8.346;2022-09-25T13:14:26;10.80;;;7.83;;
19810;SDS011;10065;49.632;8.346;2022-09-25T13:16:59;8.17;;;6.63;;
19810;SDS011;10065;49.632;8.346;2022-09-25T13:19:28;10.13;;;6.17;;
19810;SDS011;10065;49.632;8.346;2022-09-25T13:21:59;7.43;;;5.13;;
19810;SDS011;10065;49.632;8.346;2022-09-25T13:24:30;5.57;;;4.10;;
19810;SDS011;10065;49.632;8.346;2022-09-25T13:27:10;7.63;;;3.67;;
19810;SDS011;10065;49.632;8.346;2022-09-25T13:29:49;6.27;;;3.70;;
19810;SDS011;10065;49.632;8.346;2022-09-25T13:32:19;6.27;;;3.60;;
19810;SDS011;10065;49.632;8.346;2022-09-25T13:34:53;8.27;;;3.43;;
19810;SDS011;10065;49.632;8.346;2022-09-25T13:37:24;10.03;;;3.30;;
19810;SDS011;10065;49.632;8.346;2022-09-25T13:39:54;6.07;;;3.70;;
19810;SDS011;10065;49.632;8.346;2022-09-25T13:42:42;5.70;;;3.63;;
19810;SDS011;10065;49.632;8.346;2022-09-25T13:48:02;5.60;;;2.97;;
19810;SDS011;10065;49.632;8.346;2022-09-25T13:50:35;5.43;;;3.00;;
19810;SDS011;10065;49.632;8.346;2022-09-25T13:53:15;3.97;;;2.50;;
19810;SDS011;10065;49.632;8.346;2022-09-25T13:56:04;5.93;;;2.80;;
19810;SDS011;10065;49.632;8.346;2022-09-25T13:58:58;6.13;;;2.60;;
19810;SDS011;10065;49.632;8.346;2022-09-25T14:01:42;8.17;;;3.10;;
19810;SDS011;10065;49.632;8.346;2022-09-25T14:04:15;5.23;;;2.60;;
19810;SDS011;10065;49.632;8.346;2022-09-25T14:06:54;6.27;;;2.43;;
19810;SDS011;10065;49.632;8.346;2022-09-25T14:09:29;4.93;;;2.97;;
19810;SDS011;10065;49.632;8.346;2022-09-25T14:12:04;6.80;;;3.10;;
19810;SDS011;10065;49.632;8.346;2022-09-25T14:14:41;10.10;;;3.50;;
19810;SDS011;10065;49.632;8.346;2022-09-25T14:17:18;7.10;;;3.23;;
19810;SDS011;10065;49.632;8.346;2022-09-25T14:19:47;6.57;;;3.10;;
19810;SDS011;10065;49.632;8.346;2022-09-25T14:22:19;8.70;;;3.20;;
19810;SDS011;10065;49.632;8.346;2022-09-25T14:24:53;7.57;;;4.00;;
19810;SDS011;10065;49.632;8.346;2022-09-25T14:27:22;6.80;;;3.30;;
19810;SDS011;10065;49.632;8.346;2022-09-25T14:30:02;6.43;;;3.13;;
19810;SDS011;10065;49.632;8.346;2022-09-25T14:32:45;5.03;;;2.80;;
19810;SDS011;10065;49.632;8.346;2022-09-25T14:35:29;5.40;;;2.30;;
19810;SDS011;10065;49.632;8.346;2022-09-25T14:38:15;4.47;;;2.30;;
19810;SDS011;10065;49.632;8.346;2022-09-25T14:40:56;6.70;;;2.83;;
19810;SDS011;10065;49.632;8.346;2022-09-25T14:43:39;5.23;;;2.53;;
19810;SDS011;10065;49.632;8.346;2022-09-25T14:46:18;5.07;;;2.47;;
19810;SDS011;10065;49.632;8.346;2022-09-25T14:48:48;4.60;;;2.37;;
19810;SDS011;10065;49.632;8.346;2022-09-25T14:51:20;4.17;;;2.00;;
19810;SDS011;10065;49.632;8.346;2022-09-25T14:53:51;5.37;;;2.27;;
19810;SDS011;10065;49.632;8.346;2022-09-25T14:56:21;3.80;;;2.13;;
19810;SDS011;10065;49.632;8.346;2022-09-25T14:58:52;8.63;;;1.93;;
19810;SDS011;10065;49.632;8.346;2022-09-25T15:01:26;4.10;;;2.20;;
19810;SDS011;10065;49.632;8.346;2022-09-25T15:03:56;5.17;;;2.40;;
19810;SDS011;10065;49.632;8.346;2022-09-25T15:06:27;5.10;;;1.90;;
19810;SDS011;10065;49.632;8.346;2022-09-25T15:08:57;3.23;;;1.40;;
19810;SDS011;10065;49.632;8.346;2022-09-25T15:11:36;4.17;;;2.00;;
19810;SDS011;10065;49.632;8.346;2022-09-25T15:14:09;3.80;;;1.80;;
19810;SDS011;10065;49.632;8.346;2022-09-25T15:16:39;5.70;;;2.13;;
19810;SDS011;10065;49.632;8.346;2022-09-25T15:19:28;5.33;;;2.00;;